createdAt,value
2022-11-19T00:01:53.285Z,-4.78
2022-11-19T00:04:20.642Z,-4.80
2022-11-19T00:06:47.968Z,-4.80
2022-11-19T00:09:18.091Z,-4.82
2022-11-19T00:12:04.684Z,-4.97
2022-11-19T00:14:32.363Z,-4.97
2022-11-19T00:16:59.772Z,-5.03
2022-11-19T00:19:27.737Z,-5.01
2022-11-19T00:21:56.458Z,-5.11
2022-11-19T00:24:23.961Z,-5.08
2022-11-19T00:26:51.375Z,-5.18
2022-11-19T00:29:19.457Z,-5.28
2022-11-19T00:31:47.235Z,-5.23
2022-11-19T00:34:14.682Z,-5.26
2022-11-19T00:36:42.023Z,-5.28
2022-11-19T00:39:09.465Z,-5.20
2022-11-19T00:41:39.450Z,-5.12
2022-11-19T00:44:06.976Z,-5.11
2022-11-19T00:46:34.291Z,-5.18
2022-11-19T00:49:02.702Z,-5.20
2022-11-19T00:51:30.870Z,-5.23
2022-11-19T00:53:58.687Z,-5.21
2022-11-19T00:56:26.752Z,-5.12
2022-11-19T00:58:55.970Z,-5.06
2022-11-19T01:01:25.435Z,-5.02
2022-11-19T01:03:53.738Z,-5.07
2022-11-19T01:06:23.967Z,-5.10
2022-11-19T01:08:53.714Z,-5.09
2022-11-19T01:11:24.048Z,-5.15
2022-11-19T01:13:51.401Z,-5.18
2022-11-19T01:16:24.603Z,-5.12
2022-11-19T01:18:52.168Z,-5.14
2022-11-19T01:21:21.328Z,-5.24
2022-11-19T01:23:49.276Z,-5.29
2022-11-19T01:26:17.722Z,-5.21
2022-11-19T01:28:46.711Z,-5.34
2022-11-19T01:31:15.687Z,-5.33
2022-11-19T01:33:43.254Z,-5.47
2022-11-19T01:36:16.819Z,-5.48
2022-11-19T01:38:50.760Z,-5.46
2022-11-19T01:41:24.427Z,-5.51
2022-11-19T01:43:59.072Z,-5.56
2022-11-19T01:46:29.542Z,-5.57
2022-11-19T01:49:09.358Z,-5.60
2022-11-19T01:51:48.695Z,-5.66
2022-11-19T01:54:28.415Z,-5.63
2022-11-19T01:57:02.024Z,-5.64
2022-11-19T01:59:31.501Z,-5.65
2022-11-19T02:01:59.314Z,-5.60
2022-11-19T02:04:27.756Z,-5.63
2022-11-19T02:06:55.728Z,-5.70
2022-11-19T02:09:24.547Z,-5.94
2022-11-19T02:11:54.813Z,-6.04
2022-11-19T02:15:01.091Z,-6.04
2022-11-19T02:17:44.073Z,-6.02
2022-11-19T02:20:42.321Z,-6.02
2022-11-19T02:23:34.557Z,-6.14
2022-11-19T02:26:20.375Z,-6.12
2022-11-19T02:28:54.063Z,-6.05
2022-11-19T02:31:26.003Z,-6.01
2022-11-19T02:34:00.875Z,-5.99
2022-11-19T02:36:43.576Z,-6.01
2022-11-19T02:39:26.975Z,-6.10
2022-11-19T02:42:04.364Z,-6.10
2022-11-19T02:44:55.670Z,-6.03
2022-11-19T02:47:29.962Z,-6.07
2022-11-19T02:50:03.246Z,-6.04
2022-11-19T02:52:30.840Z,-6.06
2022-11-19T02:54:58.209Z,-6.08
2022-11-19T02:57:25.531Z,-6.05
2022-11-19T03:00:21.591Z,-6.00
2022-11-19T03:03:20.426Z,-5.99
2022-11-19T03:05:54.855Z,-5.98
2022-11-19T03:08:22.928Z,-5.95
2022-11-19T03:11:24.483Z,-5.98
2022-11-19T03:14:40.322Z,-6.05
2022-11-19T03:17:38.957Z,-6.10
2022-11-19T03:20:18.764Z,-6.09
2022-11-19T03:22:59.881Z,-6.20
2022-11-19T03:25:46.229Z,-6.16
2022-11-19T03:28:22.491Z,-6.27
2022-11-19T03:30:52.969Z,-6.30
2022-11-19T03:33:25.922Z,-6.31
2022-11-19T03:35:58.178Z,-6.28
2022-11-19T03:38:31.835Z,-6.33
2022-11-19T03:41:01.449Z,-6.29
2022-11-19T03:43:34.784Z,-6.20
2022-11-19T03:46:05.439Z,-6.33
2022-11-19T03:48:34.309Z,-6.47
2022-11-19T03:51:12.415Z,-6.44
2022-11-19T03:53:39.974Z,-6.51
2022-11-19T03:56:13.371Z,-6.44
2022-11-19T03:58:44.735Z,-6.48
2022-11-19T04:01:15.120Z,-6.44
2022-11-19T04:04:02.521Z,-6.50
2022-11-19T04:06:29.801Z,-6.55
2022-11-19T04:08:57.082Z,-6.52
2022-11-19T04:13:50.872Z,-6.58
2022-11-19T04:16:19.691Z,-6.60
2022-11-19T04:18:47.062Z,-6.57
2022-11-19T04:21:14.394Z,-6.48
2022-11-19T04:23:41.834Z,-6.52
2022-11-19T04:26:09.179Z,-6.54
2022-11-19T04:28:37.866Z,-6.57
2022-11-19T04:31:05.649Z,-6.60
2022-11-19T04:33:34.193Z,-6.62
2022-11-19T04:36:01.540Z,-6.62
2022-11-19T04:38:28.896Z,-6.58
2022-11-19T04:40:56.409Z,-6.55
2022-11-19T04:43:23.807Z,-6.53
2022-11-19T04:45:51.353Z,-6.43
2022-11-19T04:48:18.686Z,-6.47
2022-11-19T04:50:47.662Z,-6.51
2022-11-19T04:53:16.817Z,-6.42
2022-11-19T04:55:44.219Z,-6.10
2022-11-19T04:58:11.803Z,-6.14
2022-11-19T05:00:39.226Z,-6.30
2022-11-19T05:03:06.587Z,-6.49
2022-11-19T05:05:34.049Z,-6.61
2022-11-19T05:08:01.308Z,-6.65
2022-11-19T05:10:28.868Z,-6.65
2022-11-19T05:12:56.231Z,-6.63
2022-11-19T05:15:23.624Z,-6.63
2022-11-19T05:17:51.033Z,-6.58
2022-11-19T05:20:18.433Z,-6.61
2022-11-19T05:22:45.844Z,-6.54
2022-11-19T05:25:13.234Z,-6.53
2022-11-19T05:27:40.595Z,-6.62
2022-11-19T05:30:08.980Z,-6.66
2022-11-19T05:32:38.756Z,-6.62
2022-11-19T05:35:07.535Z,-6.61
2022-11-19T05:37:35.093Z,-6.59
2022-11-19T05:40:02.545Z,-6.59
2022-11-19T05:42:29.919Z,-6.60
2022-11-19T05:44:57.391Z,-6.65
2022-11-19T05:47:24.912Z,-6.66
2022-11-19T05:49:52.418Z,-6.66
2022-11-19T05:52:19.824Z,-6.63
2022-11-19T05:54:47.205Z,-6.58
2022-11-19T05:57:14.658Z,-6.55
2022-11-19T05:59:44.044Z,-6.58
2022-11-19T06:02:12.753Z,-6.59
2022-11-19T06:04:40.386Z,-6.61
2022-11-19T06:07:07.950Z,-6.58
2022-11-19T06:09:35.961Z,-6.58
2022-11-19T06:12:03.445Z,-6.38
2022-11-19T06:14:30.833Z,-6.43
2022-11-19T06:16:59.892Z,-6.54
2022-11-19T06:19:28.059Z,-6.62
2022-11-19T06:21:55.948Z,-6.66
2022-11-19T06:24:23.883Z,-6.66
2022-11-19T06:26:51.954Z,-6.69
2022-11-19T06:29:20.279Z,-6.67
2022-11-19T06:31:47.954Z,-6.65
2022-11-19T06:34:15.564Z,-6.63
2022-11-19T06:36:47.803Z,-6.60
2022-11-19T06:39:18.537Z,-6.59
2022-11-19T06:41:48.931Z,-6.62
2022-11-19T06:44:16.612Z,-6.61
2022-11-19T06:46:43.903Z,-6.65
2022-11-19T06:49:16.845Z,-6.64
2022-11-19T06:51:47.270Z,-6.60
2022-11-19T06:54:14.836Z,-6.61
2022-11-19T06:56:42.232Z,-6.52
2022-11-19T06:59:09.692Z,-6.56
2022-11-19T07:01:37.375Z,-6.54
2022-11-19T07:04:04.820Z,-6.53
2022-11-19T07:06:32.264Z,-6.56
2022-11-19T07:08:59.812Z,-6.51
2022-11-19T07:11:27.298Z,-6.42
2022-11-19T07:13:58.717Z,-6.34
2022-11-19T07:16:29.274Z,-6.35
2022-11-19T07:18:59.094Z,-6.34
2022-11-19T07:21:28.017Z,-6.25
2022-11-19T07:23:56.606Z,-6.16
2022-11-19T07:26:24.393Z,-6.09
2022-11-19T07:28:52.029Z,-6.03
2022-11-19T07:31:20.200Z,-5.97
2022-11-19T07:33:47.661Z,-5.92
2022-11-19T07:36:18.312Z,-5.85
2022-11-19T07:38:47.268Z,-5.84
2022-11-19T07:41:33.670Z,-5.73
2022-11-19T07:44:01.345Z,-5.31
2022-11-19T07:46:29.201Z,-4.43
2022-11-19T07:48:57.489Z,-3.43
2022-11-19T07:51:25.165Z,-2.58
2022-11-19T07:53:55.329Z,-1.19
2022-11-19T07:56:23.920Z,0.02
2022-11-19T07:58:51.426Z,0.48
2022-11-19T08:01:22.798Z,1.20
2022-11-19T08:03:55.984Z,1.76
2022-11-19T08:06:26.435Z,2.84
2022-11-19T08:08:55.179Z,3.35
2022-11-19T08:11:23.084Z,3.66
2022-11-19T08:13:50.955Z,3.04
2022-11-19T08:16:36.823Z,2.54
2022-11-19T08:19:09.681Z,2.72
2022-11-19T08:21:40.850Z,2.34
2022-11-19T08:24:09.937Z,1.56
2022-11-19T08:26:37.904Z,0.99
2022-11-19T08:29:05.833Z,0.13
2022-11-19T08:31:33.336Z,-0.78
2022-11-19T08:34:04.225Z,-1.06
2022-11-19T08:36:31.848Z,-1.12
2022-11-19T08:39:00.626Z,-0.88
2022-11-19T08:41:46.569Z,-0.38
2022-11-19T08:44:14.016Z,0.03
2022-11-19T08:46:41.586Z,0.67
2022-11-19T08:49:09.203Z,0.53
2022-11-19T08:51:36.559Z,0.76
2022-11-19T08:54:04.929Z,0.17
2022-11-19T08:56:33.706Z,-0.69
2022-11-19T08:59:02.947Z,-1.41
2022-11-19T09:01:30.725Z,-2.01
2022-11-19T09:03:58.609Z,-2.31
2022-11-19T09:06:25.833Z,-1.82
2022-11-19T09:08:53.158Z,-1.68
2022-11-19T09:11:21.592Z,-1.89
2022-11-19T09:13:49.119Z,-1.56
2022-11-19T09:16:16.714Z,-1.38
2022-11-19T09:18:44.113Z,-1.00
2022-11-19T09:21:12.495Z,-0.11
2022-11-19T09:23:41.547Z,-0.03
2022-11-19T09:26:17.419Z,-0.10
2022-11-19T09:28:45.174Z,-0.24
2022-11-19T09:31:15.094Z,-0.81
2022-11-19T09:33:46.053Z,-0.97
2022-11-19T09:36:14.348Z,-0.54
2022-11-19T09:38:42.833Z,-0.55
2022-11-19T09:41:23.921Z,-0.30
2022-11-19T09:44:20.771Z,-0.09
2022-11-19T09:47:06.667Z,-0.52
2022-11-19T09:50:13.003Z,0.10
2022-11-19T09:53:05.658Z,0.16
2022-11-19T09:55:40.253Z,0.28
2022-11-19T09:58:16.691Z,0.79
2022-11-19T10:00:45.291Z,1.03
2022-11-19T10:03:16.163Z,0.41
2022-11-19T10:06:02.342Z,-0.11
2022-11-19T10:09:05.292Z,-0.35
2022-11-19T10:11:56.337Z,-0.82
2022-11-19T10:14:47.038Z,-0.56
2022-11-19T10:17:20.549Z,-0.63
2022-11-19T10:19:57.167Z,-0.28
2022-11-19T10:22:46.321Z,-0.06
2022-11-19T10:25:18.114Z,-0.10
2022-11-19T10:27:55.249Z,-0.16
2022-11-19T10:30:25.647Z,-0.18
2022-11-19T10:33:32.670Z,-0.42
2022-11-19T10:36:08.175Z,-0.73
2022-11-19T10:38:38.498Z,-0.82
2022-11-19T10:41:17.824Z,-0.75
2022-11-19T10:43:52.260Z,-0.71
2022-11-19T10:46:24.468Z,-0.89
2022-11-19T10:48:56.483Z,-0.82
2022-11-19T10:51:42.789Z,-0.77
2022-11-19T10:54:30.611Z,-0.77
2022-11-19T10:56:59.295Z,-0.77
2022-11-19T10:59:28.997Z,-0.52
2022-11-19T11:02:03.976Z,-0.60
2022-11-19T11:04:31.354Z,-0.50
2022-11-19T11:07:01.490Z,-0.67
2022-11-19T11:09:36.621Z,-0.80
2022-11-19T11:12:35.917Z,-0.59
2022-11-19T11:15:26.929Z,-0.59
2022-11-19T11:18:06.318Z,-0.27
2022-11-19T11:20:36.279Z,-0.25
2022-11-19T11:23:18.342Z,-0.36
2022-11-19T11:26:12.452Z,-0.12
2022-11-19T11:28:57.064Z,-0.20
2022-11-19T11:31:30.837Z,-0.38
2022-11-19T11:33:59.218Z,-0.89
2022-11-19T11:36:29.105Z,-1.16
2022-11-19T11:38:58.617Z,-1.06
2022-11-19T11:44:27.791Z,-1.28
2022-11-19T11:47:05.243Z,-1.21
2022-11-19T11:49:45.187Z,-1.16
2022-11-19T11:52:12.483Z,-1.10
2022-11-19T11:55:03.343Z,-0.93
2022-11-19T11:57:37.340Z,-0.91
2022-11-19T12:00:37.079Z,-0.91
2022-11-19T12:03:04.537Z,-1.00
2022-11-19T12:05:50.659Z,-1.12
2022-11-19T12:08:41.515Z,-1.16
2022-11-19T12:11:58.137Z,-1.06
2022-11-19T12:14:32.019Z,-1.19
2022-11-19T12:17:08.697Z,-1.11
2022-11-19T12:19:42.630Z,-1.27
2022-11-19T12:22:17.367Z,-1.39
2022-11-19T12:25:19.359Z,-1.33
2022-11-19T12:27:57.109Z,-1.13
2022-11-19T12:30:25.611Z,-0.94
2022-11-19T12:33:11.266Z,-0.95
2022-11-19T12:36:10.877Z,-0.81
2022-11-19T12:39:13.794Z,-0.97
2022-11-19T12:42:08.391Z,-1.24
2022-11-19T12:44:42.500Z,-1.26
2022-11-19T12:47:27.903Z,-1.23
2022-11-19T12:50:03.397Z,-1.33
2022-11-19T12:52:58.045Z,-1.31
2022-11-19T12:55:43.631Z,-1.35
2022-11-19T12:58:25.225Z,-1.30
2022-11-19T13:00:58.607Z,-1.17
2022-11-19T13:03:47.676Z,-1.25
2022-11-19T13:06:31.212Z,-1.27
2022-11-19T13:09:04.665Z,-1.23
2022-11-19T13:12:06.063Z,-1.38
2022-11-19T13:14:36.946Z,-1.45
2022-11-19T13:17:13.119Z,-1.61
2022-11-19T13:19:42.457Z,-1.54
2022-11-19T13:22:19.079Z,-1.55
2022-11-19T13:24:53.271Z,-1.44
2022-11-19T13:27:26.140Z,-1.37
2022-11-19T13:30:03.104Z,-1.32
2022-11-19T13:32:36.056Z,-1.35
2022-11-19T13:35:45.593Z,-1.39
2022-11-19T13:38:28.474Z,-1.49
2022-11-19T13:42:00.778Z,-1.57
2022-11-19T13:44:41.739Z,-1.61
2022-11-19T13:47:25.842Z,-1.52
2022-11-19T13:50:15.136Z,-1.42
2022-11-19T13:52:50.378Z,-1.40
2022-11-19T13:55:35.589Z,-1.54
2022-11-19T13:58:21.866Z,-1.62
2022-11-19T14:01:24.895Z,-1.74
2022-11-19T14:04:04.489Z,-1.83
2022-11-19T14:06:53.414Z,-1.91
2022-11-19T14:09:44.678Z,-1.86
2022-11-19T14:12:47.748Z,-1.92
2022-11-19T14:15:52.400Z,-1.90
2022-11-19T14:18:54.558Z,-1.94
2022-11-19T14:21:59.914Z,-2.14
2022-11-19T14:24:45.803Z,-2.22
2022-11-19T14:27:19.093Z,-2.26
2022-11-19T14:29:46.410Z,-2.23
2022-11-19T14:32:13.800Z,-2.29
2022-11-19T14:34:46.892Z,-2.32
2022-11-19T14:37:29.059Z,-2.40
2022-11-19T14:40:28.245Z,-2.46
2022-11-19T14:43:34.401Z,-2.53
2022-11-19T14:46:02.043Z,-2.55
2022-11-19T14:48:31.931Z,-2.59
2022-11-19T14:51:05.385Z,-2.62
2022-11-19T14:53:36.579Z,-2.61
2022-11-19T14:56:16.745Z,-2.58
2022-11-19T14:58:54.609Z,-2.59
2022-11-19T15:01:23.627Z,-2.65
2022-11-19T15:03:59.880Z,-2.72
2022-11-19T15:06:28.584Z,-2.73
2022-11-19T15:09:02.078Z,-2.74
2022-11-19T15:11:57.463Z,-2.88
2022-11-19T15:14:39.819Z,-2.92
2022-11-19T15:17:10.301Z,-2.94
2022-11-19T15:20:18.981Z,-2.98
2022-11-19T15:23:21.571Z,-3.03
2022-11-19T15:26:28.532Z,-2.97
2022-11-19T15:29:18.199Z,-2.93
2022-11-19T15:32:22.972Z,-3.00
2022-11-19T15:35:18.314Z,-2.98
2022-11-19T15:37:57.226Z,-2.92
2022-11-19T15:40:30.893Z,-2.95
2022-11-19T15:43:04.643Z,-3.04
2022-11-19T15:45:39.885Z,-3.10
2022-11-19T15:48:19.435Z,-3.19
2022-11-19T15:50:48.657Z,-3.26
2022-11-19T15:53:18.912Z,-3.17
2022-11-19T15:55:59.850Z,-2.98
2022-11-19T15:58:43.847Z,-2.88
2022-11-19T16:01:16.767Z,-2.83
2022-11-19T16:03:45.151Z,-2.96
2022-11-19T16:06:26.896Z,-3.09
2022-11-19T16:08:57.480Z,-3.22
2022-11-19T16:11:47.542Z,-3.32
2022-11-19T16:14:48.240Z,-3.31
2022-11-19T16:17:43.561Z,-3.36
2022-11-19T16:20:11.724Z,-3.38
2022-11-19T16:23:05.896Z,-3.38
2022-11-19T16:25:40.028Z,-3.38
2022-11-19T16:28:13.130Z,-3.42
2022-11-19T16:30:49.737Z,-3.35
2022-11-19T16:33:23.854Z,-3.22
2022-11-19T16:35:53.784Z,-3.13
2022-11-19T16:38:26.265Z,-3.07
2022-11-19T16:41:14.203Z,-3.02
2022-11-19T16:43:48.821Z,-3.10
2022-11-19T16:46:20.863Z,-3.14
2022-11-19T16:48:48.231Z,-3.18
2022-11-19T16:51:39.262Z,-3.28
2022-11-19T16:54:10.995Z,-3.31
2022-11-19T16:56:46.025Z,-3.28
2022-11-19T16:59:30.572Z,-3.28
2022-11-19T17:02:07.294Z,-3.34
2022-11-19T17:08:20.252Z,-3.51
2022-11-19T17:10:48.929Z,-3.44
2022-11-19T17:13:20.439Z,-3.38
2022-11-19T17:15:51.385Z,-3.41
2022-11-19T17:18:37.476Z,-3.38
2022-11-19T17:21:26.208Z,-3.40
2022-11-19T17:23:59.261Z,-3.46
2022-11-19T17:26:28.275Z,-3.48
2022-11-19T17:29:20.949Z,-3.51
2022-11-19T17:31:50.308Z,-3.49
2022-11-19T17:34:33.337Z,-3.47
2022-11-19T17:37:01.015Z,-3.46
2022-11-19T17:39:32.133Z,-3.45
2022-11-19T17:42:28.252Z,-3.41
2022-11-19T17:44:57.340Z,-3.43
2022-11-19T17:47:26.240Z,-3.47
2022-11-19T17:49:56.477Z,-3.48
2022-11-19T17:52:31.111Z,-3.52
2022-11-19T17:55:12.947Z,-3.60
2022-11-19T17:57:45.915Z,-3.65
2022-11-19T18:00:28.132Z,-3.70
2022-11-19T18:02:59.036Z,-3.77
2022-11-19T18:05:34.352Z,-3.81
2022-11-19T18:08:02.168Z,-3.89
2022-11-19T18:10:29.779Z,-4.00
2022-11-19T18:12:57.290Z,-4.06
2022-11-19T18:15:24.955Z,-4.17
2022-11-19T18:17:52.637Z,-4.26
2022-11-19T18:20:20.336Z,-4.28
2022-11-19T18:22:51.562Z,-4.24
2022-11-19T18:25:24.413Z,-4.23
2022-11-19T18:27:52.699Z,-4.27
2022-11-19T18:30:22.073Z,-4.29
2022-11-19T18:46:01.424Z,-4.32
2022-11-19T18:49:46.282Z,-4.37
2022-11-19T19:06:50.211Z,-4.68
2022-11-19T19:14:44.357Z,-4.64
2022-11-19T19:17:15.924Z,-4.69
2022-11-19T19:19:46.517Z,-4.58
2022-11-19T19:22:14.474Z,-4.48
2022-11-19T19:24:42.304Z,-4.61
2022-11-19T19:27:10.213Z,-4.70
2022-11-19T19:29:46.746Z,-4.72
2022-11-19T19:32:14.714Z,-4.73
2022-11-19T19:34:42.387Z,-4.79
2022-11-19T19:37:09.796Z,-4.81
2022-11-19T19:39:37.874Z,-4.83
2022-11-19T19:42:05.724Z,-4.85
2022-11-19T19:44:33.826Z,-4.84
2022-11-19T19:47:02.035Z,-4.85
2022-11-19T19:49:32.398Z,-4.85
2022-11-19T19:52:02.824Z,-4.89
2022-11-19T19:54:34.380Z,-4.91
2022-11-19T19:57:02.096Z,-4.89
2022-11-19T19:59:30.268Z,-4.87
2022-11-19T20:02:05.016Z,-4.88
2022-11-19T20:04:46.607Z,-4.87
2022-11-19T20:07:15.662Z,-4.89
2022-11-19T20:09:45.109Z,-4.92
2022-11-19T20:12:13.154Z,-4.98
2022-11-19T20:14:41.770Z,-4.81
2022-11-19T20:17:20.360Z,-5.03
2022-11-19T20:19:53.077Z,-5.06
2022-11-19T20:22:24.261Z,-5.14
2022-11-19T20:24:57.652Z,-5.16
2022-11-19T20:27:44.679Z,-5.16
2022-11-19T20:30:13.881Z,-5.11
2022-11-19T20:32:41.651Z,-5.10
2022-11-19T20:35:11.781Z,-5.14
2022-11-19T20:37:54.468Z,-5.16
2022-11-19T20:40:29.464Z,-5.16
2022-11-19T20:43:26.620Z,-5.14
2022-11-19T20:45:54.775Z,-5.15
2022-11-19T20:48:23.256Z,-5.13
2022-11-19T20:50:52.186Z,-5.13
2022-11-19T20:53:23.231Z,-5.13
2022-11-19T20:56:04.766Z,-5.14
2022-11-19T20:58:35.445Z,-5.15
2022-11-19T21:01:07.076Z,-5.18
2022-11-19T21:03:37.528Z,-5.17
2022-11-19T21:06:08.056Z,-5.17
2022-11-19T21:08:37.468Z,-5.12
2022-11-19T21:11:12.586Z,-5.17
2022-11-19T21:13:49.709Z,-5.22
2022-11-19T21:16:22.481Z,-5.21
2022-11-19T21:18:51.873Z,-5.20
2022-11-19T21:21:22.816Z,-5.24
2022-11-19T21:23:52.393Z,-5.24
2022-11-19T21:26:24.075Z,-5.30
2022-11-19T21:28:55.391Z,-5.28
2022-11-19T21:31:43.406Z,-5.36
2022-11-19T21:34:21.301Z,-5.43
2022-11-19T21:36:50.565Z,-5.49
2022-11-19T21:39:21.184Z,-5.49
2022-11-19T21:41:53.812Z,-5.51
2022-11-19T21:44:22.361Z,-5.48
2022-11-19T21:46:50.869Z,-5.52
2022-11-19T21:49:19.018Z,-5.56
2022-11-19T21:51:48.514Z,-5.61
2022-11-19T21:54:37.883Z,-5.63
2022-11-19T21:57:05.800Z,-5.66
2022-11-19T21:59:33.886Z,-5.68
2022-11-19T22:02:01.899Z,-5.70
2022-11-19T22:04:39.132Z,-5.72
2022-11-19T22:07:07.098Z,-5.65
2022-11-19T22:09:36.187Z,-5.73
2022-11-19T22:12:04.001Z,-5.72
2022-11-19T22:14:31.499Z,-5.65
2022-11-19T22:16:58.863Z,-5.71
2022-11-19T22:19:26.215Z,-5.73
2022-11-19T22:21:53.568Z,-5.76
2022-11-19T22:24:21.027Z,-5.79
2022-11-19T22:26:48.593Z,-5.79
2022-11-19T22:29:16.021Z,-5.81
2022-11-19T22:31:43.349Z,-5.80
2022-11-19T22:34:12.101Z,-5.91
2022-11-19T22:36:39.688Z,-5.83
2022-11-19T22:39:07.323Z,-5.92
2022-11-19T22:41:35.392Z,-5.96
2022-11-19T22:44:02.930Z,-5.99
2022-11-19T22:46:30.311Z,-5.99
2022-11-19T22:48:57.617Z,-5.97
2022-11-19T22:51:26.876Z,-5.99
2022-11-19T22:53:55.144Z,-5.88
2022-11-19T22:56:25.955Z,-5.95
2022-11-19T22:58:53.924Z,-5.86
2022-11-19T23:01:35.466Z,-5.78
2022-11-19T23:04:06.628Z,-5.70
2022-11-19T23:06:35.798Z,-5.69
2022-11-19T23:09:04.929Z,-5.78
2022-11-19T23:11:51.363Z,-5.86
2022-11-19T23:14:19.591Z,-5.83
2022-11-19T23:16:47.131Z,-5.70
2022-11-19T23:19:15.003Z,-5.86
2022-11-19T23:21:42.578Z,-5.95
2022-11-19T23:24:10.068Z,-5.99
2022-11-19T23:26:38.068Z,-6.00
2022-11-19T23:29:06.302Z,-6.03
2022-11-19T23:31:36.215Z,-6.00
2022-11-19T23:34:04.274Z,-6.00
2022-11-19T23:36:35.399Z,-6.03
2022-11-19T23:39:03.425Z,-6.09
2022-11-19T23:41:32.866Z,-6.09
2022-11-19T23:44:00.376Z,-6.13
2022-11-19T23:46:33.058Z,-6.14
2022-11-19T23:49:01.557Z,-6.16
2022-11-19T23:51:34.437Z,-6.12
2022-11-19T23:54:02.917Z,-6.04
2022-11-19T23:56:32.288Z,-6.13
2022-11-19T23:59:03.443Z,-6.18
